sensor_id;sensor_type;location;lat;lon;timestamp;temperature;humidity
66337;SHT30;53139;45.576;5.304;2022-09-09T00:02:18;16.91;89.95
66337;SHT30;53139;45.576;5.304;2022-09-09T00:05:31;17.15;87.90
66337;SHT30;53139;45.576;5.304;2022-09-09T00:08:48;17.12;88.37
66337;SHT30;53139;45.576;5.304;2022-09-09T00:12:02;16.94;89.07
66337;SHT30;53139;45.576;5.304;2022-09-09T00:15:19;16.98;88.42
66337;SHT30;53139;45.576;5.304;2022-09-09T00:24:56;16.52;91.15
66337;SHT30;53139;45.576;5.304;2022-09-09T00:28:00;16.52;90.02
66337;SHT30;53139;45.576;5.304;2022-09-09T00:31:20;16.42;90.90
66337;SHT30;53139;45.576;5.304;2022-09-09T00:34:26;16.25;91.72
66337;SHT30;53139;45.576;5.304;2022-09-09T00:37:31;16.20;91.99
66337;SHT30;53139;45.576;5.304;2022-09-09T00:40:39;16.22;91.71
66337;SHT30;53139;45.576;5.304;2022-09-09T00:43:49;16.32;90.26
66337;SHT30;53139;45.576;5.304;2022-09-09T00:47:20;16.27;89.71
66337;SHT30;53139;45.576;5.304;2022-09-09T00:54:16;16.16;89.99
66337;SHT30;53139;45.576;5.304;2022-09-09T00:57:28;16.22;89.38
66337;SHT30;53139;45.576;5.304;2022-09-09T01:00:38;16.13;89.58
66337;SHT30;53139;45.576;5.304;2022-09-09T01:03:52;15.98;90.70
66337;SHT30;53139;45.576;5.304;2022-09-09T01:07:12;15.71;91.64
66337;SHT30;53139;45.576;5.304;2022-09-09T01:10:35;15.84;90.82
66337;SHT30;53139;45.576;5.304;2022-09-09T01:13:41;15.49;92.54
66337;SHT30;53139;45.576;5.304;2022-09-09T01:16:45;15.67;91.18
66337;SHT30;53139;45.576;5.304;2022-09-09T01:20:08;15.46;91.87
66337;SHT30;53139;45.576;5.304;2022-09-09T01:26:43;15.67;89.75
66337;SHT30;53139;45.576;5.304;2022-09-09T01:29:46;15.68;89.45
66337;SHT30;53139;45.576;5.304;2022-09-09T01:32:53;15.61;89.72
66337;SHT30;53139;45.576;5.304;2022-09-09T01:39:09;15.54;89.59
66337;SHT30;53139;45.576;5.304;2022-09-09T01:42:13;15.42;90.28
66337;SHT30;53139;45.576;5.304;2022-09-09T01:45:17;15.40;90.47
66337;SHT30;53139;45.576;5.304;2022-09-09T01:48:21;15.32;90.39
66337;SHT30;53139;45.576;5.304;2022-09-09T01:51:24;15.16;90.62
66337;SHT30;53139;45.576;5.304;2022-09-09T01:54:30;14.89;92.32
66337;SHT30;53139;45.576;5.304;2022-09-09T01:57:43;15.13;91.24
66337;SHT30;53139;45.576;5.304;2022-09-09T02:10:53;14.95;91.45
66337;SHT30;53139;45.576;5.304;2022-09-09T02:14:01;14.78;91.58
66337;SHT30;53139;45.576;5.304;2022-09-09T02:17:10;14.51;91.89
66337;SHT30;53139;45.576;5.304;2022-09-09T02:20:13;14.61;91.78
66337;SHT30;53139;45.576;5.304;2022-09-09T02:23:17;14.68;91.42
66337;SHT30;53139;45.576;5.304;2022-09-09T02:26:21;14.56;91.92
66337;SHT30;53139;45.576;5.304;2022-09-09T02:29:31;14.59;91.22
66337;SHT30;53139;45.576;5.304;2022-09-09T02:32:36;14.48;91.29
66337;SHT30;53139;45.576;5.304;2022-09-09T02:35:40;14.43;91.88
66337;SHT30;53139;45.576;5.304;2022-09-09T02:38:48;14.44;92.10
66337;SHT30;53139;45.576;5.304;2022-09-09T02:41:52;14.32;92.17
66337;SHT30;53139;45.576;5.304;2022-09-09T02:44:55;14.33;91.88
66337;SHT30;53139;45.576;5.304;2022-09-09T02:51:27;14.08;93.56
66337;SHT30;53139;45.576;5.304;2022-09-09T02:54:39;14.09;94.01
66337;SHT30;53139;45.576;5.304;2022-09-09T02:57:44;14.30;91.76
66337;SHT30;53139;45.576;5.304;2022-09-09T03:00:50;14.37;91.18
66337;SHT30;53139;45.576;5.304;2022-09-09T03:03:53;14.38;91.06
66337;SHT30;53139;45.576;5.304;2022-09-09T03:06:58;14.27;91.16
66337;SHT30;53139;45.576;5.304;2022-09-09T03:10:01;14.08;91.47
66337;SHT30;53139;45.576;5.304;2022-09-09T03:13:04;14.05;91.88
66337;SHT30;53139;45.576;5.304;2022-09-09T03:16:07;13.99;91.78
66337;SHT30;53139;45.576;5.304;2022-09-09T03:19:10;13.88;92.28
66337;SHT30;53139;45.576;5.304;2022-09-09T03:22:12;13.85;92.53
66337;SHT30;53139;45.576;5.304;2022-09-09T03:25:15;13.89;92.32
66337;SHT30;53139;45.576;5.304;2022-09-09T03:28:18;13.85;92.13
66337;SHT30;53139;45.576;5.304;2022-09-09T03:31:20;13.81;92.03
66337;SHT30;53139;45.576;5.304;2022-09-09T03:34:23;13.71;92.63
66337;SHT30;53139;45.576;5.304;2022-09-09T03:37:25;13.43;92.90
66337;SHT30;53139;45.576;5.304;2022-09-09T03:40:28;13.72;92.40
66337;SHT30;53139;45.576;5.304;2022-09-09T03:43:30;13.63;91.88
66337;SHT30;53139;45.576;5.304;2022-09-09T03:46:33;13.46;91.98
66337;SHT30;53139;45.576;5.304;2022-09-09T03:49:36;13.60;92.81
66337;SHT30;53139;45.576;5.304;2022-09-09T03:52:39;13.54;92.68
66337;SHT30;53139;45.576;5.304;2022-09-09T03:55:44;13.61;92.63
66337;SHT30;53139;45.576;5.304;2022-09-09T03:58:47;13.58;92.83
66337;SHT30;53139;45.576;5.304;2022-09-09T04:01:50;13.54;93.12
66337;SHT30;53139;45.576;5.304;2022-09-09T04:04:53;13.50;93.21
66337;SHT30;53139;45.576;5.304;2022-09-09T04:07:55;13.53;92.97
66337;SHT30;53139;45.576;5.304;2022-09-09T04:10:58;13.40;93.46
66337;SHT30;53139;45.576;5.304;2022-09-09T04:14:03;13.57;93.99
66337;SHT30;53139;45.576;5.304;2022-09-09T04:17:08;13.42;93.85
66337;SHT30;53139;45.576;5.304;2022-09-09T04:20:10;13.43;93.96
66337;SHT30;53139;45.576;5.304;2022-09-09T04:23:14;13.33;94.07
66337;SHT30;53139;45.576;5.304;2022-09-09T04:26:18;13.37;94.63
66337;SHT30;53139;45.576;5.304;2022-09-09T04:29:20;13.39;93.78
66337;SHT30;53139;45.576;5.304;2022-09-09T04:32:23;13.40;93.93
66337;SHT30;53139;45.576;5.304;2022-09-09T04:35:25;13.39;93.48
66337;SHT30;53139;45.576;5.304;2022-09-09T04:38:29;13.43;93.08
66337;SHT30;53139;45.576;5.304;2022-09-09T04:41:32;13.40;93.32
66337;SHT30;53139;45.576;5.304;2022-09-09T04:44:34;13.40;93.81
66337;SHT30;53139;45.576;5.304;2022-09-09T04:47:37;13.32;94.39
66337;SHT30;53139;45.576;5.304;2022-09-09T04:50:40;13.39;94.14
66337;SHT30;53139;45.576;5.304;2022-09-09T04:53:42;13.30;94.83
66337;SHT30;53139;45.576;5.304;2022-09-09T04:56:45;13.43;94.41
66337;SHT30;53139;45.576;5.304;2022-09-09T04:59:48;13.51;93.85
66337;SHT30;53139;45.576;5.304;2022-09-09T05:02:50;13.42;94.45
66337;SHT30;53139;45.576;5.304;2022-09-09T05:05:53;13.37;93.50
66337;SHT30;53139;45.576;5.304;2022-09-09T05:08:56;13.43;93.47
66337;SHT30;53139;45.576;5.304;2022-09-09T05:11:58;13.43;93.48
66337;SHT30;53139;45.576;5.304;2022-09-09T05:15:01;13.28;93.83
66337;SHT30;53139;45.576;5.304;2022-09-09T05:18:04;13.24;93.88
66337;SHT30;53139;45.576;5.304;2022-09-09T05:21:06;13.28;93.20
66337;SHT30;53139;45.576;5.304;2022-09-09T05:24:09;13.24;93.61
66337;SHT30;53139;45.576;5.304;2022-09-09T05:27:12;13.27;93.45
66337;SHT30;53139;45.576;5.304;2022-09-09T05:30:14;13.36;93.41
66337;SHT30;53139;45.576;5.304;2022-09-09T05:33:17;13.39;93.12
66337;SHT30;53139;45.576;5.304;2022-09-09T05:36:21;13.40;93.08
66337;SHT30;53139;45.576;5.304;2022-09-09T05:39:23;13.57;92.38
66337;SHT30;53139;45.576;5.304;2022-09-09T05:42:30;13.65;92.04
66337;SHT30;53139;45.576;5.304;2022-09-09T05:45:32;13.67;92.46
66337;SHT30;53139;45.576;5.304;2022-09-09T05:48:41;13.74;92.45
66337;SHT30;53139;45.576;5.304;2022-09-09T05:51:43;13.81;92.20
66337;SHT30;53139;45.576;5.304;2022-09-09T05:54:46;13.91;92.45
66337;SHT30;53139;45.576;5.304;2022-09-09T05:57:49;14.04;92.07
66337;SHT30;53139;45.576;5.304;2022-09-09T06:00:51;14.22;91.82
66337;SHT30;53139;45.576;5.304;2022-09-09T06:03:55;14.40;91.29
66337;SHT30;53139;45.576;5.304;2022-09-09T06:06:57;14.57;90.64
66337;SHT30;53139;45.576;5.304;2022-09-09T06:09:59;14.64;90.82
66337;SHT30;53139;45.576;5.304;2022-09-09T06:13:02;14.64;91.28
66337;SHT30;53139;45.576;5.304;2022-09-09T06:16:15;14.74;91.04
66337;SHT30;53139;45.576;5.304;2022-09-09T06:19:18;14.88;90.36
66337;SHT30;53139;45.576;5.304;2022-09-09T06:22:21;14.93;90.68
66337;SHT30;53139;45.576;5.304;2022-09-09T06:25:24;14.88;90.27
66337;SHT30;53139;45.576;5.304;2022-09-09T06:28:27;15.05;90.32
66337;SHT30;53139;45.576;5.304;2022-09-09T06:31:31;15.12;90.05
66337;SHT30;53139;45.576;5.304;2022-09-09T06:34:36;15.20;89.58
66337;SHT30;53139;45.576;5.304;2022-09-09T06:37:38;15.27;90.03
66337;SHT30;53139;45.576;5.304;2022-09-09T06:40:41;15.26;89.47
66337;SHT30;53139;45.576;5.304;2022-09-09T06:43:45;15.35;89.25
66337;SHT30;53139;45.576;5.304;2022-09-09T06:46:48;15.49;89.15
66337;SHT30;53139;45.576;5.304;2022-09-09T06:49:50;15.43;89.05
66337;SHT30;53139;45.576;5.304;2022-09-09T06:52:53;15.67;88.32
66337;SHT30;53139;45.576;5.304;2022-09-09T06:55:55;15.57;88.83
66337;SHT30;53139;45.576;5.304;2022-09-09T06:59:00;15.68;89.10
66337;SHT30;53139;45.576;5.304;2022-09-09T07:02:07;15.73;88.74
66337;SHT30;53139;45.576;5.304;2022-09-09T07:05:09;16.10;87.54
66337;SHT30;53139;45.576;5.304;2022-09-09T07:08:12;16.10;86.73
66337;SHT30;53139;45.576;5.304;2022-09-09T07:11:15;16.42;85.76
66337;SHT30;53139;45.576;5.304;2022-09-09T07:14:18;16.33;86.30
66337;SHT30;53139;45.576;5.304;2022-09-09T07:17:21;16.74;84.64
66337;SHT30;53139;45.576;5.304;2022-09-09T07:20:23;16.54;86.24
66337;SHT30;53139;45.576;5.304;2022-09-09T07:23:26;16.54;86.07
66337;SHT30;53139;45.576;5.304;2022-09-09T07:26:30;16.47;86.86
66337;SHT30;53139;45.576;5.304;2022-09-09T07:29:32;16.53;86.56
66337;SHT30;53139;45.576;5.304;2022-09-09T07:32:35;16.87;84.73
66337;SHT30;53139;45.576;5.304;2022-09-09T07:35:37;16.95;84.98
66337;SHT30;53139;45.576;5.304;2022-09-09T07:38:45;17.09;84.00
66337;SHT30;53139;45.576;5.304;2022-09-09T07:41:48;17.23;83.35
66337;SHT30;53139;45.576;5.304;2022-09-09T07:44:51;17.91;81.29
66337;SHT30;53139;45.576;5.304;2022-09-09T07:47:57;17.51;84.14
66337;SHT30;53139;45.576;5.304;2022-09-09T07:51:08;17.56;82.44
66337;SHT30;53139;45.576;5.304;2022-09-09T07:54:12;17.66;82.09
66337;SHT30;53139;45.576;5.304;2022-09-09T07:57:15;17.78;81.70
66337;SHT30;53139;45.576;5.304;2022-09-09T08:00:19;17.91;81.72
66337;SHT30;53139;45.576;5.304;2022-09-09T08:03:24;18.06;80.66
66337;SHT30;53139;45.576;5.304;2022-09-09T08:06:34;18.35;78.73
66337;SHT30;53139;45.576;5.304;2022-09-09T08:09:37;18.36;77.39
66337;SHT30;53139;45.576;5.304;2022-09-09T08:12:39;18.67;76.46
66337;SHT30;53139;45.576;5.304;2022-09-09T08:15:42;18.84;77.63
66337;SHT30;53139;45.576;5.304;2022-09-09T08:18:46;19.09;74.06
66337;SHT30;53139;45.576;5.304;2022-09-09T08:21:49;19.57;72.76
66337;SHT30;53139;45.576;5.304;2022-09-09T08:24:52;20.00;69.26
66337;SHT30;53139;45.576;5.304;2022-09-09T08:27:54;19.70;71.14
66337;SHT30;53139;45.576;5.304;2022-09-09T08:31:11;19.64;71.21
66337;SHT30;53139;45.576;5.304;2022-09-09T08:34:15;20.05;67.08
66337;SHT30;53139;45.576;5.304;2022-09-09T08:37:17;20.38;71.71
66337;SHT30;53139;45.576;5.304;2022-09-09T08:40:28;21.34;66.61
66337;SHT30;53139;45.576;5.304;2022-09-09T08:43:33;20.93;66.46
66337;SHT30;53139;45.576;5.304;2022-09-09T08:46:41;20.43;69.44
66337;SHT30;53139;45.576;5.304;2022-09-09T08:56:25;20.98;69.17
66337;SHT30;53139;45.576;5.304;2022-09-09T08:59:29;20.56;68.97
66337;SHT30;53139;45.576;5.304;2022-09-09T09:02:38;20.45;66.30
66337;SHT30;53139;45.576;5.304;2022-09-09T09:05:51;20.30;65.16
66337;SHT30;53139;45.576;5.304;2022-09-09T09:09:08;21.55;65.78
66337;SHT30;53139;45.576;5.304;2022-09-09T09:12:22;22.02;62.21
66337;SHT30;53139;45.576;5.304;2022-09-09T09:15:28;20.79;61.51
66337;SHT30;53139;45.576;5.304;2022-09-09T09:18:32;20.52;62.89
66337;SHT30;53139;45.576;5.304;2022-09-09T09:21:44;21.93;60.86
66337;SHT30;53139;45.576;5.304;2022-09-09T09:24:57;22.48;55.20
66337;SHT30;53139;45.576;5.304;2022-09-09T09:28:16;23.46;55.81
66337;SHT30;53139;45.576;5.304;2022-09-09T09:31:19;23.51;54.83
66337;SHT30;53139;45.576;5.304;2022-09-09T09:34:23;23.42;55.75
66337;SHT30;53139;45.576;5.304;2022-09-09T09:37:30;24.09;54.54
66337;SHT30;53139;45.576;5.304;2022-09-09T09:40:33;22.56;55.26
66337;SHT30;53139;45.576;5.304;2022-09-09T09:43:37;21.97;54.84
66337;SHT30;53139;45.576;5.304;2022-09-09T09:46:42;22.25;55.06
66337;SHT30;53139;45.576;5.304;2022-09-09T09:49:54;23.37;51.96
66337;SHT30;53139;45.576;5.304;2022-09-09T09:53:00;24.21;49.49
66337;SHT30;53139;45.576;5.304;2022-09-09T09:56:08;24.83;47.94
66337;SHT30;53139;45.576;5.304;2022-09-09T10:02:37;25.83;49.17
66337;SHT30;53139;45.576;5.304;2022-09-09T10:05:46;24.37;47.01
66337;SHT30;53139;45.576;5.304;2022-09-09T10:08:49;23.62;46.54
66337;SHT30;53139;45.576;5.304;2022-09-09T10:15:34;24.27;43.72
66337;SHT30;53139;45.576;5.304;2022-09-09T10:18:52;25.33;45.08
66337;SHT30;53139;45.576;5.304;2022-09-09T10:25:58;26.65;45.18
66337;SHT30;53139;45.576;5.304;2022-09-09T10:32:28;26.14;43.47
66337;SHT30;53139;45.576;5.304;2022-09-09T10:39:34;27.00;45.85
66337;SHT30;53139;45.576;5.304;2022-09-09T10:42:38;25.99;42.26
66337;SHT30;53139;45.576;5.304;2022-09-09T10:55:51;29.02;39.01
66337;SHT30;53139;45.576;5.304;2022-09-09T10:59:17;29.23;38.15
66337;SHT30;53139;45.576;5.304;2022-09-09T11:02:31;28.03;38.86
66337;SHT30;53139;45.576;5.304;2022-09-09T11:05:53;27.07;39.54
66337;SHT30;53139;45.576;5.304;2022-09-09T11:09:01;28.26;40.37
66337;SHT30;53139;45.576;5.304;2022-09-09T11:12:05;27.24;38.03
66337;SHT30;53139;45.576;5.304;2022-09-09T11:15:20;24.89;41.45
66337;SHT30;53139;45.576;5.304;2022-09-09T11:18:25;26.28;41.42
66337;SHT30;53139;45.576;5.304;2022-09-09T11:21:35;27.29;40.42
66337;SHT30;53139;45.576;5.304;2022-09-09T11:24:51;28.01;42.35
66337;SHT30;53139;45.576;5.304;2022-09-09T11:41:40;28.69;39.24
66337;SHT30;53139;45.576;5.304;2022-09-09T11:44:44;28.85;38.59
66337;SHT30;53139;45.576;5.304;2022-09-09T11:47:54;27.31;38.27
66337;SHT30;53139;45.576;5.304;2022-09-09T11:54:29;25.73;41.21
66337;SHT30;53139;45.576;5.304;2022-09-09T11:57:34;26.21;39.14
66337;SHT30;53139;45.576;5.304;2022-09-09T12:00:43;26.59;39.78
66337;SHT30;53139;45.576;5.304;2022-09-09T12:03:52;26.49;37.93
66337;SHT30;53139;45.576;5.304;2022-09-09T12:07:00;27.54;38.76
66337;SHT30;53139;45.576;5.304;2022-09-09T12:10:18;26.36;40.15
66337;SHT30;53139;45.576;5.304;2022-09-09T12:13:24;27.00;40.65
66337;SHT30;53139;45.576;5.304;2022-09-09T12:19:35;28.94;35.43
66337;SHT30;53139;45.576;5.304;2022-09-09T12:32:26;29.54;36.16
66337;SHT30;53139;45.576;5.304;2022-09-09T12:35:31;27.41;34.68
66337;SHT30;53139;45.576;5.304;2022-09-09T12:38:39;28.30;34.48
66337;SHT30;53139;45.576;5.304;2022-09-09T12:41:51;27.69;36.08
66337;SHT30;53139;45.576;5.304;2022-09-09T12:45:00;28.69;35.44
66337;SHT30;53139;45.576;5.304;2022-09-09T12:48:07;30.04;35.73
66337;SHT30;53139;45.576;5.304;2022-09-09T12:51:27;28.19;35.29
66337;SHT30;53139;45.576;5.304;2022-09-09T12:54:30;27.50;37.28
66337;SHT30;53139;45.576;5.304;2022-09-09T12:57:38;28.19;36.26
66337;SHT30;53139;45.576;5.304;2022-09-09T13:00:49;27.95;35.14
66337;SHT30;53139;45.576;5.304;2022-09-09T13:03:53;29.75;35.72
66337;SHT30;53139;45.576;5.304;2022-09-09T13:07:08;28.20;35.56
66337;SHT30;53139;45.576;5.304;2022-09-09T13:10:13;26.38;37.89
66337;SHT30;53139;45.576;5.304;2022-09-09T13:13:20;25.34;38.17
66337;SHT30;53139;45.576;5.304;2022-09-09T13:16:29;25.73;37.63
66337;SHT30;53139;45.576;5.304;2022-09-09T13:19:37;26.89;37.88
66337;SHT30;53139;45.576;5.304;2022-09-09T13:22:40;26.86;36.30
66337;SHT30;53139;45.576;5.304;2022-09-09T13:25:53;25.92;38.66
66337;SHT30;53139;45.576;5.304;2022-09-09T13:29:17;26.78;38.44
66337;SHT30;53139;45.576;5.304;2022-09-09T13:32:20;26.03;37.68
66337;SHT30;53139;45.576;5.304;2022-09-09T13:35:24;25.57;39.99
66337;SHT30;53139;45.576;5.304;2022-09-09T13:38:28;25.76;37.30
66337;SHT30;53139;45.576;5.304;2022-09-09T13:41:42;27.40;35.72
66337;SHT30;53139;45.576;5.304;2022-09-09T13:44:46;28.67;36.54
66337;SHT30;53139;45.576;5.304;2022-09-09T13:48:17;28.14;35.99
66337;SHT30;53139;45.576;5.304;2022-09-09T13:51:41;29.40;35.84
66337;SHT30;53139;45.576;5.304;2022-09-09T13:54:48;26.91;36.97
66337;SHT30;53139;45.576;5.304;2022-09-09T13:57:59;28.19;35.27
66337;SHT30;53139;45.576;5.304;2022-09-09T14:01:02;28.58;35.15
66337;SHT30;53139;45.576;5.304;2022-09-09T14:04:05;29.42;34.54
66337;SHT30;53139;45.576;5.304;2022-09-09T14:07:16;29.53;37.03
66337;SHT30;53139;45.576;5.304;2022-09-09T14:10:20;27.77;35.30
66337;SHT30;53139;45.576;5.304;2022-09-09T14:13:23;26.00;37.06
66337;SHT30;53139;45.576;5.304;2022-09-09T14:16:25;26.21;38.76
66337;SHT30;53139;45.576;5.304;2022-09-09T14:19:30;24.73;38.65
66337;SHT30;53139;45.576;5.304;2022-09-09T14:22:33;25.06;37.93
66337;SHT30;53139;45.576;5.304;2022-09-09T14:25:35;25.21;38.70
66337;SHT30;53139;45.576;5.304;2022-09-09T14:28:38;24.86;39.10
66337;SHT30;53139;45.576;5.304;2022-09-09T14:31:42;24.97;39.19
66337;SHT30;53139;45.576;5.304;2022-09-09T14:34:45;24.65;39.16
66337;SHT30;53139;45.576;5.304;2022-09-09T14:37:47;24.42;42.37
66337;SHT30;53139;45.576;5.304;2022-09-09T14:40:50;24.62;41.10
66337;SHT30;53139;45.576;5.304;2022-09-09T14:43:53;24.80;41.27
66337;SHT30;53139;45.576;5.304;2022-09-09T14:46:56;24.97;41.19
66337;SHT30;53139;45.576;5.304;2022-09-09T14:49:58;25.86;39.52
66337;SHT30;53139;45.576;5.304;2022-09-09T14:53:03;25.48;40.27
66337;SHT30;53139;45.576;5.304;2022-09-09T14:56:09;25.19;40.66
66337;SHT30;53139;45.576;5.304;2022-09-09T14:59:12;25.07;41.26
66337;SHT30;53139;45.576;5.304;2022-09-09T15:02:15;25.04;41.07
66337;SHT30;53139;45.576;5.304;2022-09-09T15:05:17;24.87;41.22
66337;SHT30;53139;45.576;5.304;2022-09-09T15:08:20;25.79;42.57
66337;SHT30;53139;45.576;5.304;2022-09-09T15:11:25;25.14;40.61
66337;SHT30;53139;45.576;5.304;2022-09-09T15:14:28;25.19;41.02
66337;SHT30;53139;45.576;5.304;2022-09-09T15:17:31;25.83;40.34
66337;SHT30;53139;45.576;5.304;2022-09-09T15:20:33;27.57;37.22
66337;SHT30;53139;45.576;5.304;2022-09-09T15:23:38;27.40;37.12
66337;SHT30;53139;45.576;5.304;2022-09-09T15:26:42;25.30;39.29
66337;SHT30;53139;45.576;5.304;2022-09-09T15:29:45;26.24;40.00
66337;SHT30;53139;45.576;5.304;2022-09-09T15:32:47;24.87;39.46
66337;SHT30;53139;45.576;5.304;2022-09-09T15:35:50;24.72;38.29
66337;SHT30;53139;45.576;5.304;2022-09-09T15:38:53;25.28;40.82
66337;SHT30;53139;45.576;5.304;2022-09-09T15:41:56;25.21;39.68
66337;SHT30;53139;45.576;5.304;2022-09-09T15:44:59;25.16;41.34
66337;SHT30;53139;45.576;5.304;2022-09-09T15:48:05;24.90;38.31
66337;SHT30;53139;45.576;5.304;2022-09-09T15:51:07;25.23;39.99
66337;SHT30;53139;45.576;5.304;2022-09-09T15:54:14;25.10;38.84
66337;SHT30;53139;45.576;5.304;2022-09-09T15:57:18;25.64;38.86
66337;SHT30;53139;45.576;5.304;2022-09-09T16:00:21;26.44;37.62
66337;SHT30;53139;45.576;5.304;2022-09-09T16:03:24;26.37;39.15
66337;SHT30;53139;45.576;5.304;2022-09-09T16:06:29;26.75;37.88
66337;SHT30;53139;45.576;5.304;2022-09-09T16:09:32;25.49;37.86
66337;SHT30;53139;45.576;5.304;2022-09-09T16:12:35;25.78;38.98
66337;SHT30;53139;45.576;5.304;2022-09-09T16:15:38;25.72;39.16
66337;SHT30;53139;45.576;5.304;2022-09-09T16:18:43;26.21;40.37
66337;SHT30;53139;45.576;5.304;2022-09-09T16:21:49;25.52;40.11
66337;SHT30;53139;45.576;5.304;2022-09-09T16:24:52;25.45;43.81
66337;SHT30;53139;45.576;5.304;2022-09-09T16:27:54;25.17;41.71
66337;SHT30;53139;45.576;5.304;2022-09-09T16:30:57;25.19;41.74
66337;SHT30;53139;45.576;5.304;2022-09-09T16:34:03;25.13;43.16
66337;SHT30;53139;45.576;5.304;2022-09-09T16:37:06;24.94;42.55
66337;SHT30;53139;45.576;5.304;2022-09-09T16:40:08;24.79;43.41
66337;SHT30;53139;45.576;5.304;2022-09-09T16:43:11;24.72;45.58
66337;SHT30;53139;45.576;5.304;2022-09-09T16:46:17;24.54;44.45
66337;SHT30;53139;45.576;5.304;2022-09-09T16:49:20;24.42;43.40
66337;SHT30;53139;45.576;5.304;2022-09-09T16:52:22;24.24;45.05
66337;SHT30;53139;45.576;5.304;2022-09-09T16:55:25;24.25;48.06
66337;SHT30;53139;45.576;5.304;2022-09-09T16:58:28;24.13;48.59
66337;SHT30;53139;45.576;5.304;2022-09-09T17:01:34;24.06;47.31
66337;SHT30;53139;45.576;5.304;2022-09-09T17:04:39;24.04;49.08
66337;SHT30;53139;45.576;5.304;2022-09-09T17:07:43;23.94;50.26
66337;SHT30;53139;45.576;5.304;2022-09-09T17:10:46;23.70;49.62
66337;SHT30;53139;45.576;5.304;2022-09-09T17:13:50;23.48;49.66
66337;SHT30;53139;45.576;5.304;2022-09-09T17:16:53;23.45;49.63
66337;SHT30;53139;45.576;5.304;2022-09-09T17:19:55;23.06;46.99
66337;SHT30;53139;45.576;5.304;2022-09-09T17:22:58;23.18;53.42
66337;SHT30;53139;45.576;5.304;2022-09-09T17:26:00;23.06;52.19
66337;SHT30;53139;45.576;5.304;2022-09-09T17:29:03;22.86;49.38
66337;SHT30;53139;45.576;5.304;2022-09-09T17:32:06;22.84;54.45
66337;SHT30;53139;45.576;5.304;2022-09-09T17:35:09;22.59;54.79
66337;SHT30;53139;45.576;5.304;2022-09-09T17:38:11;22.27;54.69
66337;SHT30;53139;45.576;5.304;2022-09-09T17:41:21;22.21;54.90
66337;SHT30;53139;45.576;5.304;2022-09-09T17:44:24;22.46;54.28
66337;SHT30;53139;45.576;5.304;2022-09-09T17:47:27;22.10;55.21
66337;SHT30;53139;45.576;5.304;2022-09-09T17:50:30;22.02;54.44
66337;SHT30;53139;45.576;5.304;2022-09-09T17:53:43;22.08;56.58
66337;SHT30;53139;45.576;5.304;2022-09-09T17:56:47;22.05;55.56
66337;SHT30;53139;45.576;5.304;2022-09-09T17:59:49;21.72;56.94
66337;SHT30;53139;45.576;5.304;2022-09-09T18:02:52;21.87;56.92
66337;SHT30;53139;45.576;5.304;2022-09-09T18:06:01;21.69;57.40
66337;SHT30;53139;45.576;5.304;2022-09-09T18:09:10;21.45;60.28
66337;SHT30;53139;45.576;5.304;2022-09-09T18:12:14;21.38;60.05
66337;SHT30;53139;45.576;5.304;2022-09-09T18:15:17;21.25;58.30
66337;SHT30;53139;45.576;5.304;2022-09-09T18:18:20;21.46;61.47
66337;SHT30;53139;45.576;5.304;2022-09-09T18:21:26;21.41;59.75
66337;SHT30;53139;45.576;5.304;2022-09-09T18:28:15;21.36;61.62
66337;SHT30;53139;45.576;5.304;2022-09-09T18:31:20;21.07;61.52
66337;SHT30;53139;45.576;5.304;2022-09-09T18:34:24;21.29;56.43
66337;SHT30;53139;45.576;5.304;2022-09-09T18:37:29;21.32;53.99
66337;SHT30;53139;45.576;5.304;2022-09-09T18:40:35;21.21;55.63
66337;SHT30;53139;45.576;5.304;2022-09-09T18:43:38;21.17;57.73
66337;SHT30;53139;45.576;5.304;2022-09-09T18:46:42;21.10;58.29
66337;SHT30;53139;45.576;5.304;2022-09-09T18:49:46;21.00;59.14
66337;SHT30;53139;45.576;5.304;2022-09-09T18:52:49;20.95;59.12
66337;SHT30;53139;45.576;5.304;2022-09-09T18:55:58;20.88;59.89
66337;SHT30;53139;45.576;5.304;2022-09-09T18:59:03;19.95;66.58
66337;SHT30;53139;45.576;5.304;2022-09-09T19:02:22;19.23;71.61
66337;SHT30;53139;45.576;5.304;2022-09-09T19:05:26;18.37;76.05
66337;SHT30;53139;45.576;5.304;2022-09-09T19:08:33;18.39;78.34
66337;SHT30;53139;45.576;5.304;2022-09-09T19:11:38;18.06;78.44
66337;SHT30;53139;45.576;5.304;2022-09-09T19:14:41;18.02;79.17
66337;SHT30;53139;45.576;5.304;2022-09-09T19:17:44;18.02;79.38
66337;SHT30;53139;45.576;5.304;2022-09-09T19:20:46;17.59;82.05
66337;SHT30;53139;45.576;5.304;2022-09-09T19:23:58;17.64;80.36
66337;SHT30;53139;45.576;5.304;2022-09-09T19:27:04;17.77;80.17
66337;SHT30;53139;45.576;5.304;2022-09-09T19:30:08;17.69;80.52
66337;SHT30;53139;45.576;5.304;2022-09-09T19:33:18;17.56;81.87
66337;SHT30;53139;45.576;5.304;2022-09-09T19:36:32;17.40;81.93
66337;SHT30;53139;45.576;5.304;2022-09-09T19:39:53;17.51;81.67
66337;SHT30;53139;45.576;5.304;2022-09-09T19:42:55;17.45;81.34
66337;SHT30;53139;45.576;5.304;2022-09-09T19:45:59;17.42;82.02
66337;SHT30;53139;45.576;5.304;2022-09-09T19:49:05;17.53;81.97
66337;SHT30;53139;45.576;5.304;2022-09-09T19:52:10;17.80;81.63
66337;SHT30;53139;45.576;5.304;2022-09-09T19:55:13;17.56;82.39
66337;SHT30;53139;45.576;5.304;2022-09-09T19:58:16;17.49;82.61
66337;SHT30;53139;45.576;5.304;2022-09-09T20:01:24;17.39;83.56
66337;SHT30;53139;45.576;5.304;2022-09-09T20:04:27;17.25;83.50
66337;SHT30;53139;45.576;5.304;2022-09-09T20:07:29;17.56;82.53
66337;SHT30;53139;45.576;5.304;2022-09-09T20:10:32;17.53;82.49
66337;SHT30;53139;45.576;5.304;2022-09-09T20:13:55;17.18;82.22
66337;SHT30;53139;45.576;5.304;2022-09-09T20:16:57;17.33;83.13
66337;SHT30;53139;45.576;5.304;2022-09-09T20:20:04;16.92;85.51
66337;SHT30;53139;45.576;5.304;2022-09-09T20:23:07;17.25;83.91
66337;SHT30;53139;45.576;5.304;2022-09-09T20:26:33;17.18;84.91
66337;SHT30;53139;45.576;5.304;2022-09-09T20:29:37;16.64;87.24
66337;SHT30;53139;45.576;5.304;2022-09-09T20:32:40;17.05;84.96
66337;SHT30;53139;45.576;5.304;2022-09-09T20:35:44;17.25;84.14
66337;SHT30;53139;45.576;5.304;2022-09-09T20:38:56;17.18;85.63
66337;SHT30;53139;45.576;5.304;2022-09-09T20:42:09;16.85;87.40
66337;SHT30;53139;45.576;5.304;2022-09-09T20:45:12;17.05;86.24
66337;SHT30;53139;45.576;5.304;2022-09-09T20:48:17;17.04;85.55
66337;SHT30;53139;45.576;5.304;2022-09-09T20:51:21;16.63;87.84
66337;SHT30;53139;45.576;5.304;2022-09-09T20:54:26;16.37;88.05
66337;SHT30;53139;45.576;5.304;2022-09-09T20:57:31;16.26;87.60
66337;SHT30;53139;45.576;5.304;2022-09-09T21:00:33;16.32;87.80
66337;SHT30;53139;45.576;5.304;2022-09-09T21:07:14;16.82;84.77
66337;SHT30;53139;45.576;5.304;2022-09-09T21:10:17;16.43;88.22
66337;SHT30;53139;45.576;5.304;2022-09-09T21:13:22;16.47;87.81
66337;SHT30;53139;45.576;5.304;2022-09-09T21:16:25;16.45;87.68